sensor_id;sensor_type;location;lat;lon;timestamp;temperature;humidity
4530;DHT22;2277;51.626;7.516;2023-12-20T00:00:58;9.30;99.90
4530;DHT22;2277;51.626;7.516;2023-12-20T00:03:24;9.20;99.90
4530;DHT22;2277;51.626;7.516;2023-12-20T00:05:49;9.20;99.90
4530;DHT22;2277;51.626;7.516;2023-12-20T00:08:15;9.10;99.90
4530;DHT22;2277;51.626;7.516;2023-12-20T00:10:41;9.10;99.90
4530;DHT22;2277;51.626;7.516;2023-12-20T00:13:07;9.10;99.90
4530;DHT22;2277;51.626;7.516;2023-12-20T00:15:33;9.10;99.90
4530;DHT22;2277;51.626;7.516;2023-12-20T00:17:59;9.00;99.90
4530;DHT22;2277;51.626;7.516;2023-12-20T00:20:24;9.00;99.90
4530;DHT22;2277;51.626;7.516;2023-12-20T00:22:50;9.00;99.90
4530;DHT22;2277;51.626;7.516;2023-12-20T00:25:15;9.00;99.90
4530;DHT22;2277;51.626;7.516;2023-12-20T00:27:41;9.00;99.90
4530;DHT22;2277;51.626;7.516;2023-12-20T00:30:07;9.00;99.90
4530;DHT22;2277;51.626;7.516;2023-12-20T00:32:34;9.00;99.90
4530;DHT22;2277;51.626;7.516;2023-12-20T00:35:00;8.90;99.90
4530;DHT22;2277;51.626;7.516;2023-12-20T00:37:25;8.90;99.90
4530;DHT22;2277;51.626;7.516;2023-12-20T00:39:51;8.90;99.90
4530;DHT22;2277;51.626;7.516;2023-12-20T00:42:16;8.90;99.90
4530;DHT22;2277;51.626;7.516;2023-12-20T00:44:42;8.90;99.90
4530;DHT22;2277;51.626;7.516;2023-12-20T00:47:07;8.90;99.90
4530;DHT22;2277;51.626;7.516;2023-12-20T00:49:33;8.90;99.90
4530;DHT22;2277;51.626;7.516;2023-12-20T00:51:58;8.90;99.90
4530;DHT22;2277;51.626;7.516;2023-12-20T00:54:24;8.90;99.90
4530;DHT22;2277;51.626;7.516;2023-12-20T00:56:50;8.90;99.90
4530;DHT22;2277;51.626;7.516;2023-12-20T00:59:16;8.90;99.90
4530;DHT22;2277;51.626;7.516;2023-12-20T01:01:42;8.90;99.90
4530;DHT22;2277;51.626;7.516;2023-12-20T01:04:08;8.80;99.90
4530;DHT22;2277;51.626;7.516;2023-12-20T01:06:33;8.80;99.90
4530;DHT22;2277;51.626;7.516;2023-12-20T01:08:59;8.80;99.90
4530;DHT22;2277;51.626;7.516;2023-12-20T01:11:25;8.70;99.90
4530;DHT22;2277;51.626;7.516;2023-12-20T01:13:50;8.70;99.90
4530;DHT22;2277;51.626;7.516;2023-12-20T01:16:16;8.60;99.90
4530;DHT22;2277;51.626;7.516;2023-12-20T01:18:41;8.60;99.90
4530;DHT22;2277;51.626;7.516;2023-12-20T01:21:07;8.50;99.90
4530;DHT22;2277;51.626;7.516;2023-12-20T01:23:32;8.60;99.90
4530;DHT22;2277;51.626;7.516;2023-12-20T01:25:58;8.50;99.90
4530;DHT22;2277;51.626;7.516;2023-12-20T01:28:25;8.50;99.90
4530;DHT22;2277;51.626;7.516;2023-12-20T01:30:51;8.50;99.90
4530;DHT22;2277;51.626;7.516;2023-12-20T01:33:16;8.50;99.90
4530;DHT22;2277;51.626;7.516;2023-12-20T01:35:42;8.50;99.90
4530;DHT22;2277;51.626;7.516;2023-12-20T01:38:08;8.50;99.90
4530;DHT22;2277;51.626;7.516;2023-12-20T01:40:34;8.50;99.90
4530;DHT22;2277;51.626;7.516;2023-12-20T01:43:07;8.50;99.90
4530;DHT22;2277;51.626;7.516;2023-12-20T01:45:37;8.50;99.90
4530;DHT22;2277;51.626;7.516;2023-12-20T01:48:04;8.40;99.90
4530;DHT22;2277;51.626;7.516;2023-12-20T01:50:31;8.40;99.90
4530;DHT22;2277;51.626;7.516;2023-12-20T01:52:59;8.40;99.90
4530;DHT22;2277;51.626;7.516;2023-12-20T01:55:29;8.50;99.90
4530;DHT22;2277;51.626;7.516;2023-12-20T01:57:56;8.50;99.90
4530;DHT22;2277;51.626;7.516;2023-12-20T02:00:23;8.50;99.90
4530;DHT22;2277;51.626;7.516;2023-12-20T02:02:50;8.40;99.90
4530;DHT22;2277;51.626;7.516;2023-12-20T02:05:18;8.40;99.90
4530;DHT22;2277;51.626;7.516;2023-12-20T02:07:43;8.40;99.90
4530;DHT22;2277;51.626;7.516;2023-12-20T02:10:09;8.40;99.90
4530;DHT22;2277;51.626;7.516;2023-12-20T02:12:34;8.40;99.90
4530;DHT22;2277;51.626;7.516;2023-12-20T02:15:01;8.30;99.90
4530;DHT22;2277;51.626;7.516;2023-12-20T02:17:27;8.30;99.90
4530;DHT22;2277;51.626;7.516;2023-12-20T02:19:53;8.40;99.90
4530;DHT22;2277;51.626;7.516;2023-12-20T02:22:18;8.40;99.90
4530;DHT22;2277;51.626;7.516;2023-12-20T02:24:44;8.40;99.90
4530;DHT22;2277;51.626;7.516;2023-12-20T02:27:09;8.40;99.90
4530;DHT22;2277;51.626;7.516;2023-12-20T02:29:36;8.30;99.90
4530;DHT22;2277;51.626;7.516;2023-12-20T02:32:01;8.30;99.90
4530;DHT22;2277;51.626;7.516;2023-12-20T02:34:27;8.20;99.90
4530;DHT22;2277;51.626;7.516;2023-12-20T02:36:52;8.30;99.90
4530;DHT22;2277;51.626;7.516;2023-12-20T02:39:19;8.20;99.90
4530;DHT22;2277;51.626;7.516;2023-12-20T02:41:44;8.30;99.90
4530;DHT22;2277;51.626;7.516;2023-12-20T02:44:10;8.30;99.90
4530;DHT22;2277;51.626;7.516;2023-12-20T02:46:35;8.20;99.90
4530;DHT22;2277;51.626;7.516;2023-12-20T02:49:01;8.30;99.90
4530;DHT22;2277;51.626;7.516;2023-12-20T02:51:27;8.20;99.90
4530;DHT22;2277;51.626;7.516;2023-12-20T02:53:52;8.20;99.90
4530;DHT22;2277;51.626;7.516;2023-12-20T02:56:18;8.20;99.90
4530;DHT22;2277;51.626;7.516;2023-12-20T02:58:43;8.20;99.90
4530;DHT22;2277;51.626;7.516;2023-12-20T03:01:09;8.10;99.90
4530;DHT22;2277;51.626;7.516;2023-12-20T03:03:35;8.10;99.90
4530;DHT22;2277;51.626;7.516;2023-12-20T03:06:00;8.10;99.90
4530;DHT22;2277;51.626;7.516;2023-12-20T03:08:26;8.10;99.90
4530;DHT22;2277;51.626;7.516;2023-12-20T03:10:51;8.10;99.90
4530;DHT22;2277;51.626;7.516;2023-12-20T03:13:18;8.00;99.90
4530;DHT22;2277;51.626;7.516;2023-12-20T03:15:45;8.00;99.90
4530;DHT22;2277;51.626;7.516;2023-12-20T03:18:10;8.10;99.90
4530;DHT22;2277;51.626;7.516;2023-12-20T03:20:36;8.00;99.90
4530;DHT22;2277;51.626;7.516;2023-12-20T03:23:02;8.00;99.90
4530;DHT22;2277;51.626;7.516;2023-12-20T03:25:27;8.00;99.90
4530;DHT22;2277;51.626;7.516;2023-12-20T03:27:53;8.00;99.90
4530;DHT22;2277;51.626;7.516;2023-12-20T03:30:19;8.00;99.90
4530;DHT22;2277;51.626;7.516;2023-12-20T03:32:45;8.00;99.90
4530;DHT22;2277;51.626;7.516;2023-12-20T03:35:11;8.00;99.90
4530;DHT22;2277;51.626;7.516;2023-12-20T03:37:36;8.00;99.90
4530;DHT22;2277;51.626;7.516;2023-12-20T03:40:02;8.00;99.90
4530;DHT22;2277;51.626;7.516;2023-12-20T03:42:28;8.00;99.90
4530;DHT22;2277;51.626;7.516;2023-12-20T03:44:54;8.00;99.90
4530;DHT22;2277;51.626;7.516;2023-12-20T03:47:19;8.00;99.90
4530;DHT22;2277;51.626;7.516;2023-12-20T03:49:45;8.00;99.90
4530;DHT22;2277;51.626;7.516;2023-12-20T03:52:10;8.00;99.90
4530;DHT22;2277;51.626;7.516;2023-12-20T03:54:36;7.90;99.90
4530;DHT22;2277;51.626;7.516;2023-12-20T03:57:02;8.00;99.90
4530;DHT22;2277;51.626;7.516;2023-12-20T03:59:27;8.00;99.90
4530;DHT22;2277;51.626;7.516;2023-12-20T04:01:53;8.00;99.90
4530;DHT22;2277;51.626;7.516;2023-12-20T04:04:18;8.00;99.90
4530;DHT22;2277;51.626;7.516;2023-12-20T04:06:44;8.00;99.90
4530;DHT22;2277;51.626;7.516;2023-12-20T04:09:10;7.90;99.90
4530;DHT22;2277;51.626;7.516;2023-12-20T04:11:36;7.90;99.90
4530;DHT22;2277;51.626;7.516;2023-12-20T04:14:02;7.90;99.90
4530;DHT22;2277;51.626;7.516;2023-12-20T04:16:27;7.80;99.90
4530;DHT22;2277;51.626;7.516;2023-12-20T04:18:53;7.90;99.90
4530;DHT22;2277;51.626;7.516;2023-12-20T04:21:18;7.90;99.90
4530;DHT22;2277;51.626;7.516;2023-12-20T04:23:44;7.90;99.90
4530;DHT22;2277;51.626;7.516;2023-12-20T04:26:10;7.80;99.90
4530;DHT22;2277;51.626;7.516;2023-12-20T04:28:36;7.80;99.90
4530;DHT22;2277;51.626;7.516;2023-12-20T04:31:01;7.70;99.90
4530;DHT22;2277;51.626;7.516;2023-12-20T04:33:27;7.70;99.90
4530;DHT22;2277;51.626;7.516;2023-12-20T04:35:53;7.70;99.90
4530;DHT22;2277;51.626;7.516;2023-12-20T04:38:18;7.70;99.90
4530;DHT22;2277;51.626;7.516;2023-12-20T04:40:44;7.70;99.90
4530;DHT22;2277;51.626;7.516;2023-12-20T04:43:09;7.60;99.90
4530;DHT22;2277;51.626;7.516;2023-12-20T04:45:35;7.60;99.90
4530;DHT22;2277;51.626;7.516;2023-12-20T04:48:01;7.70;99.90
4530;DHT22;2277;51.626;7.516;2023-12-20T04:50:27;7.70;99.90
4530;DHT22;2277;51.626;7.516;2023-12-20T04:52:53;7.60;99.90
4530;DHT22;2277;51.626;7.516;2023-12-20T04:55:18;7.70;99.90
4530;DHT22;2277;51.626;7.516;2023-12-20T04:57:44;7.80;99.90
4530;DHT22;2277;51.626;7.516;2023-12-20T05:00:10;7.70;99.90
4530;DHT22;2277;51.626;7.516;2023-12-20T05:02:36;7.70;99.90
4530;DHT22;2277;51.626;7.516;2023-12-20T05:05:02;7.70;99.90
4530;DHT22;2277;51.626;7.516;2023-12-20T05:07:28;7.70;99.90
4530;DHT22;2277;51.626;7.516;2023-12-20T05:09:53;7.70;99.90
4530;DHT22;2277;51.626;7.516;2023-12-20T05:12:19;7.80;99.90
4530;DHT22;2277;51.626;7.516;2023-12-20T05:14:45;7.80;99.90
4530;DHT22;2277;51.626;7.516;2023-12-20T05:17:11;7.70;99.90
4530;DHT22;2277;51.626;7.516;2023-12-20T05:19:37;7.70;99.90
4530;DHT22;2277;51.626;7.516;2023-12-20T05:22:02;7.60;99.90
4530;DHT22;2277;51.626;7.516;2023-12-20T05:24:28;7.60;99.90
4530;DHT22;2277;51.626;7.516;2023-12-20T05:26:54;7.70;99.90
4530;DHT22;2277;51.626;7.516;2023-12-20T05:29:20;7.70;99.90
4530;DHT22;2277;51.626;7.516;2023-12-20T05:31:45;7.70;99.90
4530;DHT22;2277;51.626;7.516;2023-12-20T05:34:11;7.70;99.90
4530;DHT22;2277;51.626;7.516;2023-12-20T05:36:36;7.80;99.90
4530;DHT22;2277;51.626;7.516;2023-12-20T05:39:02;7.80;99.90
4530;DHT22;2277;51.626;7.516;2023-12-20T05:41:31;7.80;99.90
4530;DHT22;2277;51.626;7.516;2023-12-20T05:43:56;7.70;99.90
4530;DHT22;2277;51.626;7.516;2023-12-20T05:46:23;7.70;99.90
4530;DHT22;2277;51.626;7.516;2023-12-20T05:48:49;7.80;99.90
4530;DHT22;2277;51.626;7.516;2023-12-20T05:51:17;7.80;99.90
4530;DHT22;2277;51.626;7.516;2023-12-20T05:53:42;7.80;99.90
4530;DHT22;2277;51.626;7.516;2023-12-20T05:56:09;7.80;99.90
4530;DHT22;2277;51.626;7.516;2023-12-20T05:58:35;7.90;99.90
4530;DHT22;2277;51.626;7.516;2023-12-20T06:01:04;7.90;99.90
4530;DHT22;2277;51.626;7.516;2023-12-20T06:03:30;7.90;99.90
4530;DHT22;2277;51.626;7.516;2023-12-20T06:05:55;7.80;99.90
4530;DHT22;2277;51.626;7.516;2023-12-20T06:08:21;7.80;99.90
4530;DHT22;2277;51.626;7.516;2023-12-20T06:10:46;7.80;99.90
4530;DHT22;2277;51.626;7.516;2023-12-20T06:13:12;7.90;99.90
4530;DHT22;2277;51.626;7.516;2023-12-20T06:15:39;7.90;99.90
4530;DHT22;2277;51.626;7.516;2023-12-20T06:18:05;7.90;99.90
4530;DHT22;2277;51.626;7.516;2023-12-20T06:20:31;7.90;99.90
4530;DHT22;2277;51.626;7.516;2023-12-20T06:22:57;7.90;99.90
4530;DHT22;2277;51.626;7.516;2023-12-20T06:25:23;7.90;99.90
4530;DHT22;2277;51.626;7.516;2023-12-20T06:27:48;7.90;99.90
4530;DHT22;2277;51.626;7.516;2023-12-20T06:30:16;7.90;99.90
4530;DHT22;2277;51.626;7.516;2023-12-20T06:32:42;7.90;99.90
4530;DHT22;2277;51.626;7.516;2023-12-20T06:35:08;7.90;99.90
4530;DHT22;2277;51.626;7.516;2023-12-20T06:37:34;7.90;99.90
4530;DHT22;2277;51.626;7.516;2023-12-20T06:40:01;8.00;99.90
4530;DHT22;2277;51.626;7.516;2023-12-20T06:42:26;8.00;99.90
4530;DHT22;2277;51.626;7.516;2023-12-20T06:44:52;8.00;99.90
4530;DHT22;2277;51.626;7.516;2023-12-20T06:47:18;7.90;99.90
4530;DHT22;2277;51.626;7.516;2023-12-20T06:49:43;8.00;99.90
4530;DHT22;2277;51.626;7.516;2023-12-20T06:52:09;8.00;99.90
4530;DHT22;2277;51.626;7.516;2023-12-20T06:54:35;7.90;99.90
4530;DHT22;2277;51.626;7.516;2023-12-20T06:57:01;7.90;99.90
4530;DHT22;2277;51.626;7.516;2023-12-20T06:59:28;8.00;99.90
4530;DHT22;2277;51.626;7.516;2023-12-20T07:01:54;8.00;99.90
4530;DHT22;2277;51.626;7.516;2023-12-20T07:04:19;7.90;99.90
4530;DHT22;2277;51.626;7.516;2023-12-20T07:06:47;7.90;99.90
4530;DHT22;2277;51.626;7.516;2023-12-20T07:09:13;7.90;99.90
4530;DHT22;2277;51.626;7.516;2023-12-20T07:11:39;7.90;99.90
4530;DHT22;2277;51.626;7.516;2023-12-20T07:14:05;7.90;99.90
4530;DHT22;2277;51.626;7.516;2023-12-20T07:16:30;7.90;99.90
4530;DHT22;2277;51.626;7.516;2023-12-20T07:18:56;7.90;99.90
4530;DHT22;2277;51.626;7.516;2023-12-20T07:21:22;7.90;99.90
4530;DHT22;2277;51.626;7.516;2023-12-20T07:23:48;7.80;99.90
4530;DHT22;2277;51.626;7.516;2023-12-20T07:26:14;7.90;99.90
4530;DHT22;2277;51.626;7.516;2023-12-20T07:28:40;7.90;99.90
4530;DHT22;2277;51.626;7.516;2023-12-20T07:31:07;8.00;99.90
4530;DHT22;2277;51.626;7.516;2023-12-20T07:33:32;7.90;99.90
4530;DHT22;2277;51.626;7.516;2023-12-20T07:35:59;7.90;99.90
4530;DHT22;2277;51.626;7.516;2023-12-20T07:38:26;7.90;99.90
4530;DHT22;2277;51.626;7.516;2023-12-20T07:40:51;7.90;99.90
4530;DHT22;2277;51.626;7.516;2023-12-20T07:43:17;7.90;99.90
4530;DHT22;2277;51.626;7.516;2023-12-20T07:45:42;8.00;99.90
4530;DHT22;2277;51.626;7.516;2023-12-20T07:48:08;7.90;99.90
4530;DHT22;2277;51.626;7.516;2023-12-20T07:50:34;8.00;99.90
4530;DHT22;2277;51.626;7.516;2023-12-20T07:52:59;8.00;99.90
4530;DHT22;2277;51.626;7.516;2023-12-20T07:55:26;8.10;99.90
4530;DHT22;2277;51.626;7.516;2023-12-20T07:57:52;8.10;99.90
4530;DHT22;2277;51.626;7.516;2023-12-20T08:00:18;7.90;99.90
4530;DHT22;2277;51.626;7.516;2023-12-20T08:02:44;8.00;99.90
4530;DHT22;2277;51.626;7.516;2023-12-20T08:05:10;8.10;99.90
4530;DHT22;2277;51.626;7.516;2023-12-20T08:07:36;8.10;99.90
4530;DHT22;2277;51.626;7.516;2023-12-20T08:10:01;8.10;99.90
4530;DHT22;2277;51.626;7.516;2023-12-20T08:12:27;8.10;99.90
4530;DHT22;2277;51.626;7.516;2023-12-20T08:14:53;8.10;99.90
4530;DHT22;2277;51.626;7.516;2023-12-20T08:17:19;8.10;99.90
4530;DHT22;2277;51.626;7.516;2023-12-20T08:19:45;8.10;99.90
4530;DHT22;2277;51.626;7.516;2023-12-20T08:22:11;8.20;99.90
4530;DHT22;2277;51.626;7.516;2023-12-20T08:24:37;8.20;99.90
4530;DHT22;2277;51.626;7.516;2023-12-20T08:27:03;8.30;99.90
4530;DHT22;2277;51.626;7.516;2023-12-20T08:29:28;8.20;99.90
4530;DHT22;2277;51.626;7.516;2023-12-20T08:31:55;8.20;99.90
4530;DHT22;2277;51.626;7.516;2023-12-20T08:34:21;8.20;99.90
4530;DHT22;2277;51.626;7.516;2023-12-20T08:36:46;8.20;99.90
4530;DHT22;2277;51.626;7.516;2023-12-20T08:39:12;8.20;99.90
4530;DHT22;2277;51.626;7.516;2023-12-20T08:41:38;8.30;99.90
4530;DHT22;2277;51.626;7.516;2023-12-20T08:44:03;8.20;99.90
4530;DHT22;2277;51.626;7.516;2023-12-20T08:46:29;8.20;99.90
4530;DHT22;2277;51.626;7.516;2023-12-20T08:48:55;8.20;99.90
4530;DHT22;2277;51.626;7.516;2023-12-20T08:51:21;8.20;99.90
4530;DHT22;2277;51.626;7.516;2023-12-20T08:53:48;8.30;99.90
4530;DHT22;2277;51.626;7.516;2023-12-20T08:56:14;8.30;99.90
4530;DHT22;2277;51.626;7.516;2023-12-20T08:58:40;8.30;99.90
4530;DHT22;2277;51.626;7.516;2023-12-20T09:01:07;8.20;99.90
4530;DHT22;2277;51.626;7.516;2023-12-20T09:03:33;8.20;99.90
4530;DHT22;2277;51.626;7.516;2023-12-20T09:05:58;8.30;99.90
4530;DHT22;2277;51.626;7.516;2023-12-20T09:08:24;8.30;99.90
4530;DHT22;2277;51.626;7.516;2023-12-20T09:10:49;8.30;99.90
4530;DHT22;2277;51.626;7.516;2023-12-20T09:13:15;8.30;99.90
4530;DHT22;2277;51.626;7.516;2023-12-20T09:15:41;8.30;99.90
4530;DHT22;2277;51.626;7.516;2023-12-20T09:18:06;8.30;99.90
4530;DHT22;2277;51.626;7.516;2023-12-20T09:20:32;8.20;99.90
4530;DHT22;2277;51.626;7.516;2023-12-20T09:22:58;8.20;99.90
4530;DHT22;2277;51.626;7.516;2023-12-20T09:25:24;8.30;99.90
4530;DHT22;2277;51.626;7.516;2023-12-20T09:27:51;8.30;99.90
4530;DHT22;2277;51.626;7.516;2023-12-20T09:30:18;8.30;99.90
4530;DHT22;2277;51.626;7.516;2023-12-20T09:32:43;8.40;99.90
4530;DHT22;2277;51.626;7.516;2023-12-20T09:35:09;8.40;99.90
4530;DHT22;2277;51.626;7.516;2023-12-20T09:37:34;8.40;99.90
4530;DHT22;2277;51.626;7.516;2023-12-20T09:40:00;8.40;99.90
4530;DHT22;2277;51.626;7.516;2023-12-20T09:45:02;8.30;99.90
4530;DHT22;2277;51.626;7.516;2023-12-20T09:47:28;8.40;99.90
4530;DHT22;2277;51.626;7.516;2023-12-20T09:49:55;8.40;99.90
4530;DHT22;2277;51.626;7.516;2023-12-20T09:52:22;8.40;99.90
4530;DHT22;2277;51.626;7.516;2023-12-20T09:54:49;8.40;99.90
4530;DHT22;2277;51.626;7.516;2023-12-20T09:57:17;8.40;99.90
4530;DHT22;2277;51.626;7.516;2023-12-20T09:59:43;8.40;99.90
4530;DHT22;2277;51.626;7.516;2023-12-20T10:02:12;8.40;99.90
4530;DHT22;2277;51.626;7.516;2023-12-20T10:04:41;8.40;99.90
4530;DHT22;2277;51.626;7.516;2023-12-20T10:07:11;8.50;99.90
4530;DHT22;2277;51.626;7.516;2023-12-20T10:09:37;8.50;99.90
4530;DHT22;2277;51.626;7.516;2023-12-20T10:12:03;8.60;99.90
4530;DHT22;2277;51.626;7.516;2023-12-20T10:14:32;8.50;99.90
4530;DHT22;2277;51.626;7.516;2023-12-20T10:17:04;8.60;99.90
4530;DHT22;2277;51.626;7.516;2023-12-20T10:19:31;8.60;99.90
4530;DHT22;2277;51.626;7.516;2023-12-20T10:21:58;8.70;99.90
4530;DHT22;2277;51.626;7.516;2023-12-20T10:24:25;8.60;99.90
4530;DHT22;2277;51.626;7.516;2023-12-20T10:27:01;8.60;99.90
4530;DHT22;2277;51.626;7.516;2023-12-20T10:29:32;8.60;99.90
4530;DHT22;2277;51.626;7.516;2023-12-20T10:31:57;8.60;99.90
4530;DHT22;2277;51.626;7.516;2023-12-20T10:34:23;8.60;99.90
4530;DHT22;2277;51.626;7.516;2023-12-20T10:36:49;8.60;99.90
4530;DHT22;2277;51.626;7.516;2023-12-20T10:39:15;8.50;99.90
4530;DHT22;2277;51.626;7.516;2023-12-20T10:41:42;8.60;99.90
4530;DHT22;2277;51.626;7.516;2023-12-20T10:44:10;8.50;99.90
4530;DHT22;2277;51.626;7.516;2023-12-20T10:46:37;8.60;99.90
4530;DHT22;2277;51.626;7.516;2023-12-20T10:49:05;8.60;99.90
4530;DHT22;2277;51.626;7.516;2023-12-20T10:51:33;8.50;99.90
4530;DHT22;2277;51.626;7.516;2023-12-20T10:53:59;8.60;99.90
4530;DHT22;2277;51.626;7.516;2023-12-20T10:56:26;8.60;99.90
4530;DHT22;2277;51.626;7.516;2023-12-20T10:58:57;8.60;99.90
4530;DHT22;2277;51.626;7.516;2023-12-20T11:01:29;8.60;99.90
4530;DHT22;2277;51.626;7.516;2023-12-20T11:03:55;8.60;99.90
4530;DHT22;2277;51.626;7.516;2023-12-20T11:09:04;8.70;99.90
4530;DHT22;2277;51.626;7.516;2023-12-20T11:14:48;8.60;99.90
4530;DHT22;2277;51.626;7.516;2023-12-20T11:17:15;8.70;99.90
4530;DHT22;2277;51.626;7.516;2023-12-20T11:22:21;8.70;99.90
4530;DHT22;2277;51.626;7.516;2023-12-20T11:24:48;8.60;99.90
4530;DHT22;2277;51.626;7.516;2023-12-20T11:27:14;8.70;99.90
4530;DHT22;2277;51.626;7.516;2023-12-20T11:29:40;8.80;99.90
4530;DHT22;2277;51.626;7.516;2023-12-20T11:35:00;8.90;99.90
4530;DHT22;2277;51.626;7.516;2023-12-20T11:37:35;8.80;99.90
4530;DHT22;2277;51.626;7.516;2023-12-20T11:40:06;8.90;99.90
4530;DHT22;2277;51.626;7.516;2023-12-20T11:42:42;8.90;99.90
4530;DHT22;2277;51.626;7.516;2023-12-20T11:45:09;8.90;99.90
4530;DHT22;2277;51.626;7.516;2023-12-20T11:47:35;8.90;99.90
4530;DHT22;2277;51.626;7.516;2023-12-20T11:50:01;8.90;99.90
4530;DHT22;2277;51.626;7.516;2023-12-20T11:52:29;8.80;99.90
4530;DHT22;2277;51.626;7.516;2023-12-20T11:54:55;8.80;99.90
4530;DHT22;2277;51.626;7.516;2023-12-20T11:57:20;8.80;99.90
4530;DHT22;2277;51.626;7.516;2023-12-20T11:59:46;8.90;99.90
4530;DHT22;2277;51.626;7.516;2023-12-20T12:02:12;8.90;99.90
4530;DHT22;2277;51.626;7.516;2023-12-20T12:04:41;8.90;99.90
4530;DHT22;2277;51.626;7.516;2023-12-20T12:07:07;8.80;99.90
4530;DHT22;2277;51.626;7.516;2023-12-20T12:09:32;8.80;99.90
4530;DHT22;2277;51.626;7.516;2023-12-20T12:11:58;8.80;99.90
4530;DHT22;2277;51.626;7.516;2023-12-20T12:14:24;8.80;99.90
4530;DHT22;2277;51.626;7.516;2023-12-20T12:16:50;8.80;99.90
4530;DHT22;2277;51.626;7.516;2023-12-20T12:19:26;8.80;99.90
4530;DHT22;2277;51.626;7.516;2023-12-20T12:22:12;8.90;99.90
4530;DHT22;2277;51.626;7.516;2023-12-20T12:24:40;8.90;99.90
4530;DHT22;2277;51.626;7.516;2023-12-20T12:27:06;8.90;99.90
4530;DHT22;2277;51.626;7.516;2023-12-20T12:29:33;8.80;99.90
4530;DHT22;2277;51.626;7.516;2023-12-20T12:31:59;8.80;99.90
4530;DHT22;2277;51.626;7.516;2023-12-20T12:34:27;8.80;99.90
4530;DHT22;2277;51.626;7.516;2023-12-20T12:36:53;8.90;99.90
4530;DHT22;2277;51.626;7.516;2023-12-20T12:39:19;8.90;99.90
4530;DHT22;2277;51.626;7.516;2023-12-20T12:41:45;8.90;99.90
4530;DHT22;2277;51.626;7.516;2023-12-20T12:44:10;8.80;99.90
4530;DHT22;2277;51.626;7.516;2023-12-20T12:46:36;8.90;99.90
4530;DHT22;2277;51.626;7.516;2023-12-20T12:49:01;8.80;99.90
4530;DHT22;2277;51.626;7.516;2023-12-20T12:51:27;8.90;99.90
4530;DHT22;2277;51.626;7.516;2023-12-20T12:53:53;9.00;99.90
4530;DHT22;2277;51.626;7.516;2023-12-20T12:56:19;8.90;99.90
4530;DHT22;2277;51.626;7.516;2023-12-20T12:58:45;8.90;99.90
4530;DHT22;2277;51.626;7.516;2023-12-20T13:01:10;8.90;99.90
4530;DHT22;2277;51.626;7.516;2023-12-20T13:03:36;9.00;99.90
4530;DHT22;2277;51.626;7.516;2023-12-20T13:06:02;9.00;99.90
4530;DHT22;2277;51.626;7.516;2023-12-20T13:08:29;9.00;99.90
4530;DHT22;2277;51.626;7.516;2023-12-20T13:10:55;9.00;99.90
4530;DHT22;2277;51.626;7.516;2023-12-20T13:13:21;9.10;99.90
4530;DHT22;2277;51.626;7.516;2023-12-20T13:15:46;9.10;99.90
4530;DHT22;2277;51.626;7.516;2023-12-20T13:18:16;9.10;99.90
4530;DHT22;2277;51.626;7.516;2023-12-20T13:20:43;9.20;99.90
4530;DHT22;2277;51.626;7.516;2023-12-20T13:23:09;9.20;99.90
4530;DHT22;2277;51.626;7.516;2023-12-20T13:25:35;9.20;99.90
4530;DHT22;2277;51.626;7.516;2023-12-20T13:28:00;9.20;99.90
4530;DHT22;2277;51.626;7.516;2023-12-20T13:30:26;9.20;99.90
4530;DHT22;2277;51.626;7.516;2023-12-20T13:32:52;9.20;99.90
4530;DHT22;2277;51.626;7.516;2023-12-20T13:35:17;9.20;99.90
4530;DHT22;2277;51.626;7.516;2023-12-20T13:37:43;9.10;99.90
4530;DHT22;2277;51.626;7.516;2023-12-20T13:40:10;9.20;99.90
4530;DHT22;2277;51.626;7.516;2023-12-20T13:42:35;9.10;99.90
4530;DHT22;2277;51.626;7.516;2023-12-20T13:45:01;9.10;99.90
4530;DHT22;2277;51.626;7.516;2023-12-20T13:47:27;9.10;99.90
4530;DHT22;2277;51.626;7.516;2023-12-20T13:49:52;9.10;99.90
4530;DHT22;2277;51.626;7.516;2023-12-20T13:52:18;9.10;99.90
4530;DHT22;2277;51.626;7.516;2023-12-20T13:54:44;9.10;99.90
4530;DHT22;2277;51.626;7.516;2023-12-20T13:57:09;9.10;99.90
4530;DHT22;2277;51.626;7.516;2023-12-20T13:59:35;9.10;99.90
4530;DHT22;2277;51.626;7.516;2023-12-20T14:02:00;9.20;99.90
4530;DHT22;2277;51.626;7.516;2023-12-20T14:04:28;9.20;99.90
4530;DHT22;2277;51.626;7.516;2023-12-20T14:06:54;9.10;99.90
4530;DHT22;2277;51.626;7.516;2023-12-20T14:09:20;9.00;99.90
4530;DHT22;2277;51.626;7.516;2023-12-20T14:11:46;9.00;99.90
4530;DHT22;2277;51.626;7.516;2023-12-20T14:14:11;9.10;99.90
4530;DHT22;2277;51.626;7.516;2023-12-20T14:16:37;9.10;99.90
4530;DHT22;2277;51.626;7.516;2023-12-20T14:19:03;9.10;99.90
4530;DHT22;2277;51.626;7.516;2023-12-20T14:21:30;9.10;99.90
4530;DHT22;2277;51.626;7.516;2023-12-20T14:23:56;9.00;99.90
4530;DHT22;2277;51.626;7.516;2023-12-20T14:26:21;9.10;99.90
4530;DHT22;2277;51.626;7.516;2023-12-20T14:28:47;9.00;99.90
4530;DHT22;2277;51.626;7.516;2023-12-20T14:31:12;9.00;99.90
4530;DHT22;2277;51.626;7.516;2023-12-20T14:33:38;9.00;99.90
4530;DHT22;2277;51.626;7.516;2023-12-20T14:36:05;9.00;99.90
4530;DHT22;2277;51.626;7.516;2023-12-20T14:38:34;8.90;99.90
4530;DHT22;2277;51.626;7.516;2023-12-20T14:41:00;8.90;99.90
4530;DHT22;2277;51.626;7.516;2023-12-20T14:43:28;8.90;99.90
4530;DHT22;2277;51.626;7.516;2023-12-20T14:45:54;8.80;99.90
4530;DHT22;2277;51.626;7.516;2023-12-20T14:48:20;8.90;99.90
4530;DHT22;2277;51.626;7.516;2023-12-20T14:50:46;8.90;99.90
4530;DHT22;2277;51.626;7.516;2023-12-20T14:53:14;8.90;99.90
4530;DHT22;2277;51.626;7.516;2023-12-20T14:55:41;8.90;99.90
4530;DHT22;2277;51.626;7.516;2023-12-20T14:58:07;8.90;99.90
4530;DHT22;2277;51.626;7.516;2023-12-20T15:00:33;8.90;99.90
4530;DHT22;2277;51.626;7.516;2023-12-20T15:02:59;9.00;99.90
4530;DHT22;2277;51.626;7.516;2023-12-20T15:05:28;8.90;99.90
4530;DHT22;2277;51.626;7.516;2023-12-20T15:07:53;8.90;99.90
4530;DHT22;2277;51.626;7.516;2023-12-20T15:10:19;8.90;99.90
4530;DHT22;2277;51.626;7.516;2023-12-20T15:12:45;8.90;99.90
4530;DHT22;2277;51.626;7.516;2023-12-20T15:15:11;8.90;99.90
4530;DHT22;2277;51.626;7.516;2023-12-20T15:17:37;8.90;99.90
4530;DHT22;2277;51.626;7.516;2023-12-20T15:20:03;8.90;99.90
4530;DHT22;2277;51.626;7.516;2023-12-20T15:22:30;8.90;99.90
4530;DHT22;2277;51.626;7.516;2023-12-20T15:24:55;8.90;99.90
4530;DHT22;2277;51.626;7.516;2023-12-20T15:27:21;8.90;99.90
4530;DHT22;2277;51.626;7.516;2023-12-20T15:29:47;8.90;99.90
4530;DHT22;2277;51.626;7.516;2023-12-20T15:32:15;8.90;99.90
4530;DHT22;2277;51.626;7.516;2023-12-20T15:34:40;8.80;99.90
4530;DHT22;2277;51.626;7.516;2023-12-20T15:37:06;8.90;99.90
4530;DHT22;2277;51.626;7.516;2023-12-20T15:39:31;8.90;99.90
4530;DHT22;2277;51.626;7.516;2023-12-20T15:41:57;8.90;99.90
4530;DHT22;2277;51.626;7.516;2023-12-20T15:44:22;8.90;99.90
4530;DHT22;2277;51.626;7.516;2023-12-20T15:46:48;8.90;99.90
4530;DHT22;2277;51.626;7.516;2023-12-20T15:49:13;8.90;99.90
4530;DHT22;2277;51.626;7.516;2023-12-20T15:51:42;8.80;99.90
4530;DHT22;2277;51.626;7.516;2023-12-20T15:54:07;8.80;99.90
4530;DHT22;2277;51.626;7.516;2023-12-20T15:56:34;8.80;99.90
4530;DHT22;2277;51.626;7.516;2023-12-20T15:58:59;8.90;99.90
4530;DHT22;2277;51.626;7.516;2023-12-20T16:01:25;8.80;99.90
4530;DHT22;2277;51.626;7.516;2023-12-20T16:03:51;8.90;99.90
4530;DHT22;2277;51.626;7.516;2023-12-20T16:06:17;8.80;99.90
4530;DHT22;2277;51.626;7.516;2023-12-20T16:08:43;8.90;99.90
4530;DHT22;2277;51.626;7.516;2023-12-20T16:11:08;8.80;99.90
4530;DHT22;2277;51.626;7.516;2023-12-20T16:13:34;8.80;99.90
4530;DHT22;2277;51.626;7.516;2023-12-20T16:16:03;8.80;99.90
4530;DHT22;2277;51.626;7.516;2023-12-20T16:18:29;8.80;99.90
4530;DHT22;2277;51.626;7.516;2023-12-20T16:20:54;8.80;99.90
4530;DHT22;2277;51.626;7.516;2023-12-20T16:23:20;8.80;99.90